Historyczne dane pomiarowe

Dodano dane terminowe – wersja testowa.

Dane z okresu 1951-2019

Wersja bazy: 1.34 [2019-03-16, lista zmian], aktualizacja planowana na 2019-04-15

Dane meteo z obszaru Polski uzyskane na podstawie danych udostępnionych przez Instytut Meteorologii i Gospodarki Wodnej – Państwowy Instytut Badawczy.

 

Wybierz Datę:    

       

TemperaturaWilgotnośćWiatrCiśnienieOpadyŚniegCzas trwania zjawisk
 Stacja t tx tn tng RH VA  wxwx mslp ppp RRR   cm mm wxwxwxwxwxwxwx
1959-06-13 19.1 25.1 8.6 12.1 79.0- 4.7 6.3---- 0.0------------
1959-06-14 16.0 23.7 10.9 8.1 79.5- 1.0 3.0---- 0.0------------
1959-06-15 17.4 24.7 7.7 2.4 56.5- 2.7 5.7---- 0.0------------
1959-06-16 12.3 16.4 9.2 6.8 53.8- 7.0 4.0---- 0.0------------
1959-06-17 17.5 23.5 9.5 4.3 52.3- 3.3 3.3---- 0.0------------
1959-06-18 21.4 29.2 11.8 7.9 56.0- 2.0 1.0---- 0.0------------
1959-06-19 16.2 23.1 13.1 10.4 57.0- 2.7 2.7---- 0.0------------
1959-06-20 14.8 21.4 9.8 6.6 41.5- 1.3 4.3---- 0.0------------
1959-06-21 17.3 23.7 3.8 2.7 38.0- 0.0 5.0---- 0.0------------
1959-06-22 18.2 25.5 8.5 3.1 39.5- 0.0 5.3---- 0.0------------
1959-06-23 15.5 22.0 7.0 3.5 47.0- 2.3 3.7---- 0.0------------
1959-06-24 18.2 22.6 7.0 2.1 53.8- 6.0 2.0---- 0.0------------
1959-06-25 17.8 25.7 12.0 9.4 62.8- 5.3 0.7---- 0.0------------
1959-06-26 15.8 23.2 8.3 3.9 73.8- 3.7 3.7---- 7.7------------
1959-06-27 20.4 27.0 8.1 5.7 55.3- 2.3 2.3---- 1.5------------
1959-06-28 17.8 23.2 13.5 10.4 83.0- 6.0 2.3---- 1.3------------
1959-06-29 16.6 21.2 11.7 7.4 83.3- 7.3 2.3---- 2.4------------
1959-06-30 17.3 22.4 12.5 11.1 73.5- 6.3 5.7---- 0.0------------
1959-07-01 17.2 23.0 13.4 11.4 75.5- 6.3 4.3---- 3.9------------
1959-07-02 15.2 17.5 12.4 10.7 87.5- 6.7 3.3---- 6.0------------
1959-07-03 15.5 18.1 9.4 7.4 86.3- 7.7 2.3---- 3.5------------
1959-07-04 16.9 19.3 14.3 12.3 84.0- 8.0 2.0---- 0.2------------
1959-07-05 18.8 24.8 13.2 11.2 72.8- 2.3 1.7---- 0.0------------
1959-07-06 21.0 27.2 10.5 7.2 64.8- 3.0 0.7---- 0.0------------
1959-07-07 21.1 27.7 15.7 13.1 61.3- 2.3 3.0---- 0.0------------
1959-07-08 21.7 29.5 10.1 4.9 65.5- 0.0 2.3---- 0.0------------
1959-07-09 25.5 32.8 13.4 9.8 55.3- 0.0 1.3---- 0.0------------
1959-07-10 27.1 36.0 16.1 11.0 50.8- 0.0 1.7---- 0.0------------
1959-07-11 28.3 37.0 17.1 12.3 42.8- 0.3 0.7---- 0.0------------
1959-07-12 28.5 36.4 17.9 11.6 43.3- 1.0 4.3---- 0.0------------
103.7 ms

 

Źródłem pochodzenia danych jest Instytut Meteorologii i Gospodarki Wodnej – Państwowy Instytut Badawczy. Dane Instytutu Meteorologii i Gospodarki Wodnej – Państwowego Instytutu Badawczego zostały przetworzone.

Dane źródłowe można odnaleźć na stronie https://dane.imgw.pl